YKD weather

Kincardine Municipal Airport
Kincardine, Ontario, Canada

Public forecast

Using degrees Celsius for public forecast. Weather courtesy of forecast.io.

Closest aviation weather report (METAR) to Kincardine Municipal Airport

Closest report is Wiarton Airport, 39.1 nm (72.4 km) NNE. Retrieved 2019/10/16 18:00 UTC (5 minutes ago):

CYVV 161800Z 23008KT 12SM OVC025 10/08 A2946 RMK SC8 SLP982 DENSITY ALT 900FT

Closest aviation forecast (TAF) to Kincardine Municipal Airport

Closest forecast is Wiarton Airport, 39.1 nm (72.4 km) NNE. Retrieved 2019/10/16 14:00 UTC (4 hours ago):

TAF CYVV 161338Z 1614/1623 24012G22KT P6SM SCT007 OVC015 TEMPO 1614/1620 4SM -SHRA -DZ BR OVC007 FM162000 20010G20KT P6SM OVC020 RMK NXT FCST BY 162000Z